Time;durP1;ratioP1;P1;durP2;ratioP2;P2;SDS_P1;SDS_P2;PMS_P1;PMS_P2;Temp;Humidity;BMP_temperature;BMP_pressure;BME280_temperature;BME280_humidity;BME280_pressure;Samples;Min_cycle;Max_cycle;Signal;HPM_P1;HPM_P2
2021/07/27 04:15:32;;;;;;;21.13;6.95;;;;;;;13.42;100.00;98681.97;6070651;23;20096;31
2021/07/27 04:17:57;;;;;;;31.10;7.00;;;;;;;13.43;100.00;98680.22;4935860;29;20449;-74
2021/07/27 04:20:22;;;;;;;75.10;8.20;;;;;;;13.40;100.00;98686.41;4937536;29;20167;-74
2021/07/27 04:22:48;;;;;;;19.73;6.93;;;;;;;13.44;100.00;98681.94;4937214;29;20020;-74
2021/07/27 04:25:13;;;;;;;21.58;7.65;;;;;;;13.53;100.00;98674.69;4937233;29;20058;-74
2021/07/27 04:27:39;;;;;;;54.53;8.15;;;;;;;13.44;100.00;98672.41;4915604;29;20114;-74
2021/07/27 04:30:05;;;;;;;69.13;8.27;;;;;;;13.46;100.00;98665.38;4922808;29;20042;-74
2021/07/27 04:32:30;;;;;;;13.98;6.20;;;;;;;13.59;100.00;98671.91;4918761;29;20047;-74
2021/07/27 04:34:56;;;;;;;65.50;7.60;;;;;;;13.57;100.00;98673.69;4923272;29;20114;-74
2021/07/27 04:37:21;;;;;;;38.88;6.60;;;;;;;13.55;100.00;98672.91;4922186;29;20031;-74
2021/07/27 04:39:50;;;;;;;58.13;7.03;;;;;;;13.59;100.00;98673.66;4923177;29;21098;-74
2021/07/27 04:42:16;;;;;;;11.38;6.22;;;;;;;13.62;100.00;98671.78;4922876;29;20713;-73
2021/07/27 04:44:41;;;;;;;13.88;6.15;;;;;;;13.82;100.00;98672.91;4922902;29;20039;-73
2021/07/27 04:47:06;;;;;;;28.08;6.18;;;;;;;13.89;100.00;98674.41;4922950;29;20107;-73
2021/07/27 04:49:32;;;;;;;42.83;5.50;;;;;;;13.82;100.00;98672.91;4922838;29;20028;-74
2021/07/27 04:52:00;;;;;;;5.65;5.15;;;;;;;13.89;100.00;98679.63;4923002;29;20028;-74
2021/07/27 04:54:28;;;;;;;30.23;6.25;;;;;;;13.78;100.00;98671.28;4923455;29;20756;-74
2021/07/27 04:56:53;;;;;;;15.50;5.68;;;;;;;14.02;100.00;98675.72;4923364;29;20472;-74
2021/07/27 04:59:19;;;;;;;23.67;6.18;;;;;;;14.10;100.00;98673.69;4928204;29;20194;-74
2021/07/27 05:01:44;;;;;;;10.35;5.68;;;;;;;14.08;100.00;98675.50;4928178;29;20718;-74
2021/07/27 05:04:09;;;;;;;17.25;5.88;;;;;;;13.93;100.00;98670.81;4928530;29;20035;-74
2021/07/27 05:06:37;;;;;;;25.15;5.88;;;;;;;13.99;100.00;98670.59;4917525;29;20027;-74
2021/07/27 05:09:02;;;;;;;17.88;6.47;;;;;;;14.06;100.00;98661.66;4927467;29;20515;-73
2021/07/27 05:11:28;;;;;;;14.32;6.07;;;;;;;14.08;100.00;98670.28;4910140;29;20035;-74
2021/07/27 05:13:55;;;;;;;10.25;6.57;;;;;;;14.18;100.00;98664.75;4927942;29;20038;-74
2021/07/27 05:16:20;;;;;;;16.98;6.72;;;;;;;14.35;100.00;98665.00;4927736;29;20107;-74
2021/07/27 05:18:46;;;;;;;13.40;6.72;;;;;;;14.40;100.00;98660.50;4926687;29;20030;-75
2021/07/27 05:21:12;;;;;;;35.30;6.57;;;;;;;14.28;100.00;98661.78;4927273;29;20038;-79
2021/07/27 05:23:37;;;;;;;10.95;6.95;;;;;;;14.35;100.00;98660.66;4911055;29;20091;-73
2021/07/27 05:26:05;;;;;;;9.88;6.78;;;;;;;14.56;100.00;98658.25;4926969;29;20028;-73
2021/07/27 05:28:31;;;;;;;8.68;5.78;;;;;;;14.86;100.00;98659.72;4909338;29;20115;-72
2021/07/27 05:30:56;;;;;;;13.93;6.55;;;;;;;14.77;100.00;98659.22;4927190;29;20027;-72
2021/07/27 05:33:22;;;;;;;8.88;6.18;;;;;;;14.84;100.00;98663.28;4926615;29;20036;-73
2021/07/27 05:35:47;;;;;;;7.05;5.82;;;;;;;14.97;100.00;98654.09;4927281;29;20034;-72
2021/07/27 05:38:12;;;;;;;7.85;5.82;;;;;;;14.85;100.00;98651.97;4927449;29;20050;-73
2021/07/27 05:40:38;;;;;;;6.13;5.53;;;;;;;14.82;100.00;98652.06;4926032;29;20401;-72
2021/07/27 05:43:03;;;;;;;7.45;6.05;;;;;;;14.87;100.00;98652.72;4926373;29;20027;-72
2021/07/27 05:45:28;;;;;;;10.65;6.72;;;;;;;14.84;100.00;98647.63;4926904;29;20039;-72
2021/07/27 05:47:54;;;;;;;6.95;5.97;;;;;;;15.16;100.00;98641.19;4927198;29;20133;-72
2021/07/27 05:50:20;;;;;;;8.32;5.97;;;;;;;15.41;100.00;98647.13;4924582;29;20032;-72
2021/07/27 05:52:46;;;;;;;11.68;6.25;;;;;;;15.36;100.00;98649.09;4925575;29;20051;-72
2021/07/27 05:55:12;;;;;;;9.85;5.82;;;;;;;15.25;100.00;98645.22;4926018;29;20502;-72
2021/07/27 05:57:37;;;;;;;8.30;6.18;;;;;;;15.24;100.00;98639.13;4926955;29;20637;-71
2021/07/27 06:00:05;;;;;;;9.82;6.00;;;;;;;15.17;100.00;98641.13;4927016;29;20039;-71
2021/07/27 06:02:30;;;;;;;6.95;6.20;;;;;;;15.21;100.00;98639.25;4925708;29;20703;-72
2021/07/27 06:04:55;;;;;;;11.63;6.00;;;;;;;15.37;100.00;98640.34;4926794;29;20036;-71
2021/07/27 06:07:21;;;;;;;9.20;6.03;;;;;;;15.37;100.00;98640.34;4907751;29;20031;-72
2021/07/27 06:09:46;;;;;;;6.82;5.70;;;;;;;15.62;100.00;98634.16;4923310;29;20042;-71
2021/07/27 06:12:12;;;;;;;7.93;5.97;;;;;;;15.72;100.00;98637.28;4926201;29;20031;-72
2021/07/27 06:14:38;;;;;;;11.73;6.35;;;;;;;15.60;100.00;98641.19;4925188;29;20042;-72
2021/07/27 06:17:04;;;;;;;7.57;5.80;;;;;;;15.65;100.00;98653.19;4924929;29;20449;-72
2021/07/27 06:19:29;;;;;;;6.45;5.47;;;;;;;15.86;100.00;98645.41;4926216;29;20054;-72
2021/07/27 06:21:54;;;;;;;5.55;5.07;;;;;;;16.16;98.87;98651.94;4926455;29;20055;-72
2021/07/27 06:24:20;;;;;;;8.23;4.90;;;;;;;16.43;96.70;98649.03;4925641;29;20019;-72
2021/07/27 06:26:45;;;;;;;9.40;5.03;;;;;;;16.70;95.66;98647.81;4909176;29;20066;-72
2021/07/27 06:29:11;;;;;;;6.35;4.85;;;;;;;16.91;94.71;98645.16;4925509;29;20027;-72
2021/07/27 06:31:36;;;;;;;8.00;4.78;;;;;;;17.35;92.53;98640.47;4920904;29;20055;-72
2021/07/27 06:34:02;;;;;;;4.40;4.00;;;;;;;17.88;90.38;98644.91;4926257;29;20032;-72
2021/07/27 06:36:28;;;;;;;6.25;3.78;;;;;;;18.27;88.76;98640.34;4924946;29;20036;-72
2021/07/27 06:38:54;;;;;;;5.68;3.58;;;;;;;18.09;86.85;98637.75;4926341;29;20066;-72
2021/07/27 06:41:20;;;;;;;6.00;3.45;;;;;;;18.58;86.86;98644.84;4921434;29;20474;-72
2021/07/27 06:43:45;;;;;;;4.75;3.58;;;;;;;19.04;85.51;98640.63;4926164;29;20032;-73
2021/07/27 06:46:11;;;;;;;9.63;4.57;;;;;;;19.45;82.44;98634.88;4926216;29;20031;-73
2021/07/27 06:48:37;;;;;;;5.03;3.60;;;;;;;19.18;81.65;98651.22;4922659;29;20386;-72
2021/07/27 06:51:10;;;;;;;5.70;3.83;;;;;;;19.55;82.09;98640.44;4908775;29;20024;-72
2021/07/27 06:53:36;;;;;;;6.70;3.85;;;;;;;19.37;81.07;98650.22;4925514;29;20063;-71
2021/07/27 06:56:01;;;;;;;9.63;3.85;;;;;;;19.45;81.88;98648.00;4908991;29;20416;-73
2021/07/27 06:58:26;;;;;;;11.50;3.95;;;;;;;19.34;81.92;98650.38;4925746;29;20040;-72
2021/07/27 07:00:52;;;;;;;6.13;3.92;;;;;;;19.25;81.85;98655.22;4926202;29;20032;-72
2021/07/27 07:03:17;;;;;;;8.75;4.13;;;;;;;19.25;81.93;98657.84;4925295;29;20035;-72
2021/07/27 07:05:42;;;;;;;6.20;4.32;;;;;;;19.50;81.70;98661.72;4908561;29;20523;-72
2021/07/27 07:08:08;;;;;;;4.65;3.83;;;;;;;20.12;79.54;98670.47;4925837;29;20059;-72
2021/07/27 07:10:33;;;;;;;5.15;3.25;;;;;;;20.89;76.38;98671.16;4920430;29;20067;-72
2021/07/27 07:12:59;;;;;;;6.00;3.50;;;;;;;21.54;72.45;98663.53;4916829;29;20043;-72
2021/07/27 07:15:24;;;;;;;4.78;3.58;;;;;;;22.57;69.77;98660.16;4916097;29;20059;-72
2021/07/27 07:17:49;;;;;;;4.85;3.22;;;;;;;24.78;62.48;98666.91;4918720;29;20027;-72
2021/07/27 07:20:15;;;;;;;2.92;2.70;;;;;;;26.52;57.56;98656.31;4919943;29;20649;-72
2021/07/27 07:22:40;;;;;;;6.13;2.90;;;;;;;27.74;53.21;98650.88;4919391;29;20032;-72
2021/07/27 07:25:07;;;;;;;9.43;3.20;;;;;;;27.87;51.63;98659.44;4920232;29;20143;-72
2021/07/27 07:27:32;;;;;;;3.00;2.53;;;;;;;28.60;48.83;98658.94;4917608;29;20032;-72
2021/07/27 07:29:57;;;;;;;4.57;2.83;;;;;;;27.70;50.47;98660.09;4919870;29;20092;-72
2021/07/27 07:32:23;;;;;;;5.00;3.28;;;;;;;26.58;53.53;98667.25;4919650;29;20437;-73
2021/07/27 07:34:48;;;;;;;6.80;2.60;;;;;;;27.41;49.05;98671.56;4919566;29;20032;-72
2021/07/27 07:37:14;;;;;;;4.57;2.90;;;;;;;28.82;46.34;98671.94;4919453;29;20039;-73
2021/07/27 07:39:40;;;;;;;4.93;3.03;;;;;;;30.30;43.27;98672.59;4919982;29;20135;-72
2021/07/27 07:42:05;;;;;;;5.95;2.38;;;;;;;31.51;40.42;98672.63;4925495;29;20118;-72
2021/07/27 07:44:32;;;;;;;6.22;3.08;;;;;;;28.10;48.19;98672.47;4925902;29;20027;-72
2021/07/27 07:46:58;;;;;;;3.60;3.05;;;;;;;29.75;43.01;98671.94;4925751;29;20079;-72
2021/07/27 07:49:23;;;;;;;4.53;2.83;;;;;;;28.27;45.49;98674.41;4924827;29;20425;-72
2021/07/27 07:51:50;;;;;;;4.85;2.97;;;;;;;28.15;45.06;98670.22;4925455;29;20036;-73
2021/07/27 07:54:16;;;;;;;3.40;2.78;;;;;;;27.67;46.82;98660.38;4908584;29;20039;-72
2021/07/27 07:56:45;;;;;;;7.25;3.08;;;;;;;27.60;47.70;98664.56;4925549;29;20020;-73
2021/07/27 07:59:11;;;;;;;5.60;3.15;;;;;;;29.54;43.45;98658.81;4925805;29;20039;-72
2021/07/27 08:01:37;;;;;;;3.78;2.80;;;;;;;29.60;42.81;98658.25;4924642;29;21569;-72
2021/07/27 08:04:03;;;;;;;6.05;2.92;;;;;;;31.17;40.15;98654.72;4925406;29;20452;-72
2021/07/27 08:06:30;;;;;;;6.68;3.15;;;;;;;31.38;39.78;98657.88;4925322;29;20109;-72
2021/07/27 08:08:55;;;;;;;3.35;2.70;;;;;;;33.03;35.80;98663.09;4925454;29;20035;-72
2021/07/27 08:11:21;;;;;;;3.80;2.40;;;;;;;33.48;35.07;98665.06;4925295;29;20389;-73
2021/07/27 08:13:46;;;;;;;4.70;3.15;;;;;;;32.94;36.00;98666.81;4928366;29;20035;-72
2021/07/27 08:16:11;;;;;;;3.65;3.03;;;;;;;34.07;32.50;98669.91;4928555;29;20070;-72
2021/07/27 08:18:38;;;;;;;3.85;3.03;;;;;;;34.63;32.65;98664.25;4928675;29;20103;-73
2021/07/27 08:21:03;;;;;;;4.97;2.88;;;;;;;34.80;30.88;98665.72;4928526;29;20086;-73
2021/07/27 08:23:29;;;;;;;3.85;2.63;;;;;;;33.72;33.29;98666.78;4927975;29;20023;-72
2021/07/27 08:25:55;;;;;;;5.53;2.60;;;;;;;32.48;32.70;98661.16;4928176;29;20035;-73
2021/07/27 08:28:20;;;;;;;4.25;2.42;;;;;;;32.82;32.07;98662.78;4928651;29;20024;-72
2021/07/27 08:30:45;;;;;;;3.95;2.58;;;;;;;32.75;34.97;98670.69;4928591;29;20038;-72
2021/07/27 08:33:11;;;;;;;6.55;2.47;;;;;;;32.15;35.30;98665.69;4928304;29;20058;-73
2021/07/27 08:35:36;;;;;;;3.85;2.80;;;;;;;32.05;34.39;98670.38;4927546;29;20126;-73
2021/07/27 08:38:02;;;;;;;5.68;3.00;;;;;;;29.52;38.85;98674.16;4925466;29;20031;-72
2021/07/27 08:40:28;;;;;;;4.47;2.95;;;;;;;29.75;39.40;98669.25;4925833;29;20118;-72
2021/07/27 08:42:56;;;;;;;3.00;2.63;;;;;;;30.23;35.84;98666.22;4927893;29;20090;-72
2021/07/27 08:45:21;;;;;;;6.55;3.33;;;;;;;29.06;40.76;98670.59;4928327;29;20024;-72
2021/07/27 08:47:48;;;;;;;4.97;2.80;;;;;;;30.02;37.33;98660.31;4927469;29;20503;-72
2021/07/27 08:50:14;;;;;;;4.28;2.90;;;;;;;29.55;39.52;98660.53;4927260;29;20035;-72
2021/07/27 08:52:40;;;;;;;5.70;3.00;;;;;;;26.23;46.56;98661.41;4927422;29;20031;-72
2021/07/27 08:55:07;;;;;;;3.53;3.20;;;;;;;29.41;39.84;98654.69;4926685;29;20032;-72
2021/07/27 08:57:32;;;;;;;4.45;3.42;;;;;;;29.40;39.89;98669.03;4926810;29;20028;-72
2021/07/27 08:59:58;;;;;;;3.88;2.78;;;;;;;30.94;38.07;98660.66;4927343;29;20034;-72
2021/07/27 09:02:27;;;;;;;3.75;3.08;;;;;;;29.45;39.99;98666.75;4927402;29;20449;-72
2021/07/27 09:05:07;;;;;;;3.53;2.78;;;;;;;30.42;38.41;98666.03;4925325;29;20036;-72
2021/07/27 09:07:32;;;;;;;2.85;2.63;;;;;;;31.72;36.05;98668.50;4927685;29;20039;-72
2021/07/27 09:09:57;;;;;;;4.22;3.13;;;;;;;32.21;33.98;98662.34;4926839;29;20028;-72
2021/07/27 09:12:23;;;;;;;4.25;3.28;;;;;;;33.15;33.54;98658.16;4927339;29;20123;-72
2021/07/27 09:14:48;;;;;;;5.57;2.85;;;;;;;33.32;33.55;98654.41;4926832;29;20151;-74
2021/07/27 09:17:14;;;;;;;3.95;2.65;;;;;;;32.74;33.44;98667.16;4927526;29;20027;-72
2021/07/27 09:19:42;;;;;;;3.63;3.10;;;;;;;32.80;34.34;98665.63;4927502;29;20075;-71
2021/07/27 09:22:08;;;;;;;8.90;3.30;;;;;;;29.26;39.47;98661.53;4926299;29;20119;-71
2021/07/27 09:24:34;;;;;;;3.33;3.03;;;;;;;31.93;36.49;98651.97;4927526;29;20035;-71
2021/07/27 09:27:05;;;;;;;3.58;2.97;;;;;;;33.02;32.96;98657.88;4926361;29;20063;-72
2021/07/27 09:29:31;;;;;;;3.63;3.00;;;;;;;33.05;33.85;98652.16;4922925;29;20043;-72
2021/07/27 09:32:00;;;;;;;7.70;3.30;;;;;;;32.88;34.69;98652.19;4926604;29;20031;-72
2021/07/27 09:34:29;;;;;;;3.00;2.67;;;;;;;33.53;32.75;98650.28;4925969;29;20032;-72
2021/07/27 09:37:13;;;;;;;3.78;3.00;;;;;;;32.26;36.03;98640.41;4927265;29;20112;-71
2021/07/27 09:39:39;;;;;;;4.13;3.00;;;;;;;29.90;39.06;98641.84;4927443;29;20055;-71
2021/07/27 09:42:08;;;;;;;4.25;3.47;;;;;;;31.86;36.00;98645.56;4925096;29;20025;-71
2021/07/27 09:44:33;;;;;;;;;;;;;;;29.92;37.72;98637.19;4926607;29;20385;-71
2021/07/27 09:47:00;;;;;;;5.03;3.15;;;;;;;31.61;35.84;98630.44;4927121;29;19923;-72
2021/07/27 09:49:26;;;;;;;5.75;3.55;;;;;;;28.18;40.92;98640.63;4927028;29;20034;-72
2021/07/27 09:51:53;;;;;;;3.83;3.05;;;;;;;28.02;41.96;98643.88;4927000;29;20036;-71
2021/07/27 09:54:23;;;;;;;4.05;3.30;;;;;;;31.58;34.77;98631.63;4926700;29;20032;-71
2021/07/27 09:56:52;;;;;;;3.30;3.00;;;;;;;33.17;31.62;98640.00;4926117;29;20023;-72
2021/07/27 09:59:20;;;;;;;3.28;2.83;;;;;;;34.56;30.96;98641.75;4926881;29;20028;-72
2021/07/27 10:01:54;;;;;;;7.43;2.92;;;;;;;33.48;31.85;98634.69;4926579;29;20505;-71
2021/07/27 10:04:25;;;;;;;5.45;3.20;;;;;;;30.75;34.57;98633.28;4909670;29;20046;-71
2021/07/27 10:06:51;;;;;;;3.55;2.97;;;;;;;33.14;33.28;98626.94;4926107;29;20489;-72
2021/07/27 10:09:24;;;;;;;3.95;3.13;;;;;;;34.61;30.46;98629.41;4926258;29;20087;-72
2021/07/27 10:11:50;;;;;;;2.92;2.63;;;;;;;35.20;30.06;98628.56;4926533;29;20114;-72
2021/07/27 10:14:17;;;;;;;5.18;2.65;;;;;;;35.55;28.64;98629.63;4925972;29;20035;-72
2021/07/27 10:16:44;;;;;;;3.28;2.97;;;;;;;34.79;28.97;98637.13;4926124;29;20034;-72
2021/07/27 10:19:20;;;;;;;6.50;2.65;;;;;;;32.13;33.45;98631.00;4925636;29;20630;-71
2021/07/27 10:21:48;;;;;;;4.70;3.03;;;;;;;35.18;29.88;98631.44;4926429;29;20028;-71
2021/07/27 10:24:25;;;;;;;3.00;2.70;;;;;;;35.16;28.83;98624.59;4926300;29;20097;-71
2021/07/27 10:26:50;;;;;;;3.42;2.70;;;;;;;35.07;30.13;98623.03;4909302;29;20028;-71
2021/07/27 10:29:32;;;;;;;3.13;2.65;;;;;;;32.49;35.03;98626.16;4925785;29;20099;-72
2021/07/27 10:32:01;;;;;;;3.45;2.85;;;;;;;32.45;33.09;98630.19;4950087;23;20043;-71
2021/07/27 10:34:34;;;;;;;5.72;3.03;;;;;;;30.13;37.07;98628.03;4944536;28;20028;-71
2021/07/27 10:37:11;;;;;;;3.40;3.10;;;;;;;33.20;32.46;98628.94;4945459;29;20023;-70
2021/07/27 10:39:58;;;;;;;8.50;2.90;;;;;;;35.38;27.92;98620.91;4928116;29;20035;-71
2021/07/27 10:42:24;;;;;;;3.60;2.83;;;;;;;36.44;26.69;98621.94;4925097;29;20572;-71
2021/07/27 10:44:51;;;;;;;3.10;2.80;;;;;;;34.54;29.97;98624.97;4926253;29;20039;-71
2021/07/27 10:47:22;;;;;;;2.75;2.50;;;;;;;34.49;29.32;98631.72;4926009;29;20031;-72
2021/07/27 10:50:00;;;;;;;3.15;2.60;;;;;;;31.17;36.16;98636.00;4924815;29;20090;-72
2021/07/27 10:52:26;;;;;;;;;;;;;;;30.25;36.51;98625.94;4925922;29;20445;-72
2021/07/27 10:54:56;;;;;;;4.28;3.55;;;;;;;32.89;34.38;98621.66;4925641;29;19925;-71
2021/07/27 10:57:29;;;;;;;7.75;3.70;;;;;;;31.25;34.24;98630.69;4924638;29;20042;-72
2021/07/27 10:59:54;;;;;;;5.82;3.53;;;;;;;30.05;36.45;98619.91;4926304;29;20032;-71
2021/07/27 11:02:23;;;;;;;3.40;3.10;;;;;;;31.78;35.81;98610.72;4923399;29;20027;-71
2021/07/27 11:04:48;;;;;;;3.50;3.20;;;;;;;33.80;31.17;98620.19;4920799;29;20032;-71
2021/07/27 11:07:15;;;;;;;3.55;3.25;;;;;;;32.75;32.32;98622.38;4925660;29;20048;-71
2021/07/27 11:09:46;;;;;;;4.43;3.45;;;;;;;35.81;27.63;98598.56;4925608;29;20039;-71
2021/07/27 11:12:12;;;;;;;5.78;2.83;;;;;;;35.03;27.52;98601.84;4925644;29;20393;-72
2021/07/27 11:14:37;;;;;;;4.13;2.95;;;;;;;35.19;28.46;98602.66;4925764;29;20059;-71
2021/07/27 11:17:03;;;;;;;4.10;2.80;;;;;;;35.69;28.03;98595.56;4925053;29;20481;-74
2021/07/27 11:19:31;;;;;;;9.18;3.55;;;;;;;34.60;28.78;98605.38;4925936;29;20039;-74
2021/07/27 11:21:57;;;;;;;5.50;3.35;;;;;;;34.50;28.80;98590.34;4924270;29;20023;-74
2021/07/27 11:24:23;;;;;;;3.20;2.90;;;;;;;33.89;28.27;98586.81;4925799;29;20750;-72
2021/07/27 11:26:54;;;;;;;3.38;2.90;;;;;;;32.84;29.81;98594.50;4925376;29;20023;-71
2021/07/27 11:29:19;;;;;;;16.17;8.57;;;;;;;33.89;30.66;98586.81;4924955;29;20072;-72
2021/07/27 11:31:46;;;;;;;3.38;2.90;;;;;;;33.49;29.79;98586.13;4923461;29;20036;-72
2021/07/27 11:34:12;;;;;;;3.15;2.85;;;;;;;33.70;29.26;98580.13;4925272;29;20027;-73
2021/07/27 11:36:37;;;;;;;3.30;3.00;;;;;;;34.13;27.60;98587.66;4925009;29;20098;-73
2021/07/27 11:39:07;;;;;;;3.10;2.83;;;;;;;35.10;28.86;98582.22;4924570;29;20035;-72
2021/07/27 11:41:32;;;;;;;3.60;2.90;;;;;;;35.20;27.55;98580.94;4925254;29;20049;-72
2021/07/27 11:43:58;;;;;;;3.20;2.53;;;;;;;32.02;31.41;98580.41;4924783;29;20023;-72
2021/07/27 11:46:34;;;;;;;4.32;2.83;;;;;;;30.36;33.72;98575.72;4911061;29;20119;-69
2021/07/27 11:49:00;;;;;;;3.88;2.72;;;;;;;28.68;36.94;98576.41;4929101;29;20528;-69
2021/07/27 11:51:33;;;;;;;3.70;3.10;;;;;;;29.49;35.31;98559.63;4928009;29;20035;-69
2021/07/27 11:53:59;;;;;;;4.25;3.15;;;;;;;28.80;36.41;98564.53;4929337;29;20032;-69
2021/07/27 11:56:24;;;;;;;3.75;3.38;;;;;;;29.97;35.72;98543.19;4929058;29;20028;-69
2021/07/27 11:59:03;;;;;;;4.43;3.03;;;;;;;31.01;34.29;98545.78;4929061;29;20032;-69
2021/07/27 12:01:39;;;;;;;4.82;3.25;;;;;;;30.13;35.24;98547.84;4911293;29;20083;-69
2021/07/27 12:04:05;;;;;;;4.30;3.05;;;;;;;29.62;35.63;98547.59;4928564;29;20458;-69
2021/07/27 12:06:31;;;;;;;5.70;3.00;;;;;;;29.44;34.39;98542.22;4929013;29;20040;-69
2021/07/27 12:08:59;;;;;;;4.15;3.50;;;;;;;29.09;35.67;98536.88;4928687;29;20035;-69
2021/07/27 12:11:24;;;;;;;3.30;3.00;;;;;;;28.85;36.75;98524.94;4928704;29;20032;-70
2021/07/27 12:13:49;;;;;;;5.38;3.20;;;;;;;28.08;38.64;98530.56;4928049;29;20034;-69
2021/07/27 12:16:15;;;;;;;4.32;3.00;;;;;;;28.22;39.93;98519.44;4928607;29;20477;-69
2021/07/27 12:18:40;;;;;;;3.30;3.10;;;;;;;27.27;39.51;98525.59;4928534;29;20050;-69
2021/07/27 12:21:05;;;;;;;3.88;3.38;;;;;;;27.26;39.87;98512.41;4928440;29;20035;-69
2021/07/27 12:23:30;;;;;;;3.75;3.30;;;;;;;28.10;38.98;98508.13;4928654;29;20031;-69
2021/07/27 12:25:56;;;;;;;5.65;3.33;;;;;;;28.62;38.64;98507.66;4910451;29;20027;-70
2021/07/27 12:28:21;;;;;;;4.43;3.58;;;;;;;28.01;40.33;98513.50;4928234;29;20045;-69
2021/07/27 12:30:47;;;;;;;4.88;3.13;;;;;;;29.06;37.54;98506.03;4928521;29;20046;-69
2021/07/27 12:33:14;;;;;;;4.05;3.05;;;;;;;28.78;38.27;98507.03;4928267;29;20028;-69
2021/07/27 12:35:39;;;;;;;3.15;2.92;;;;;;;29.20;37.58;98493.97;4928007;29;20492;-69
2021/07/27 12:38:06;;;;;;;4.20;3.58;;;;;;;28.39;39.81;98508.06;4927657;29;20038;-69
2021/07/27 12:40:31;;;;;;;4.85;3.47;;;;;;;28.24;39.83;98512.16;4928279;29;20028;-69
2021/07/27 12:42:57;;;;;;;4.53;3.33;;;;;;;27.79;40.58;98506.66;4928308;29;20034;-69
2021/07/27 12:45:22;;;;;;;6.43;3.75;;;;;;;27.19;41.22;98504.16;4925730;29;20102;-69
2021/07/27 12:47:47;;;;;;;7.05;3.53;;;;;;;28.01;38.76;98494.84;4925275;29;20090;-69
2021/07/27 12:50:13;;;;;;;6.38;5.40;;;;;;;28.34;40.43;98499.66;4927699;29;20028;-69
2021/07/27 12:52:38;;;;;;;4.20;3.30;;;;;;;28.32;38.95;98496.25;4925666;29;20083;-69
2021/07/27 12:55:04;;;;;;;3.78;3.22;;;;;;;28.07;39.29;98500.41;4927975;29;20035;-69
2021/07/27 12:57:30;;;;;;;3.83;3.40;;;;;;;28.51;40.61;98490.03;4927342;29;20040;-69
2021/07/27 12:59:55;;;;;;;4.07;2.97;;;;;;;28.69;39.78;98487.41;4927159;29;20374;-69
2021/07/27 13:02:23;;;;;;;3.20;2.90;;;;;;;28.55;39.96;98495.91;4927859;29;21355;-69
2021/07/27 13:04:48;;;;;;;5.13;3.80;;;;;;;27.84;41.15;98496.41;4927739;29;20035;-69
2021/07/27 13:07:14;;;;;;;8.95;3.20;;;;;;;28.17;39.49;98498.56;4927832;29;20537;-69
2021/07/27 13:09:40;;;;;;;8.80;4.03;;;;;;;28.33;40.02;98497.94;4927813;29;20035;-69
2021/07/27 13:12:05;;;;;;;3.83;3.53;;;;;;;28.79;41.01;98493.53;4926658;29;20123;-69
2021/07/27 13:14:31;;;;;;;3.65;3.35;;;;;;;28.44;40.71;98480.97;4927473;29;20024;-69
2021/07/27 13:16:56;;;;;;;3.60;3.20;;;;;;;27.92;40.22;98485.88;4927661;29;20028;-69
2021/07/27 13:19:23;;;;;;;4.43;3.63;;;;;;;27.23;42.19;98470.97;4910181;29;20493;-69
2021/07/27 13:21:51;;;;;;;4.88;3.58;;;;;;;27.53;42.21;98466.47;4926510;29;20031;-70
2021/07/27 13:24:16;;;;;;;11.68;4.38;;;;;;;28.31;41.09;98467.09;4927192;29;20517;-69
2021/07/27 13:26:41;;;;;;;5.03;3.55;;;;;;;27.89;41.91;98462.19;4927464;29;20019;-70
2021/07/27 13:29:06;;;;;;;4.28;3.33;;;;;;;28.09;41.04;98473.63;4927339;29;20036;-69
2021/07/27 13:31:32;;;;;;;9.68;4.65;;;;;;;27.90;40.99;98463.91;4925589;29;20703;-69
2021/07/27 13:33:57;;;;;;;3.92;3.35;;;;;;;27.46;41.46;98465.34;4926872;29;20031;-69
2021/07/27 13:36:22;;;;;;;5.10;4.00;;;;;;;27.73;41.01;98457.47;4926791;29;20024;-69
2021/07/27 13:38:48;;;;;;;4.57;3.92;;;;;;;27.99;42.10;98459.50;4926895;29;20019;-70
2021/07/27 13:41:13;;;;;;;6.10;3.72;;;;;;;27.70;41.45;98444.41;4926972;29;20035;-69
2021/07/27 13:43:38;;;;;;;4.72;3.35;;;;;;;27.59;42.55;98450.75;4927213;29;20070;-70
2021/07/27 13:46:04;;;;;;;3.55;3.10;;;;;;;27.44;42.77;98446.03;4927229;29;20058;-77
2021/07/27 13:48:30;;;;;;;6.28;3.80;;;;;;;27.37;42.03;98441.28;4926915;29;20091;-69
2021/07/27 13:50:55;;;;;;;5.68;3.40;;;;;;;28.00;42.31;98438.06;4926675;29;20028;-69
2021/07/27 13:53:21;;;;;;;8.40;3.55;;;;;;;28.17;42.29;98433.78;4926756;29;20031;-69
2021/07/27 13:55:47;;;;;;;5.75;3.72;;;;;;;27.45;43.39;98442.38;4926979;29;20433;-69
2021/07/27 13:58:13;;;;;;;4.05;3.47;;;;;;;27.68;42.50;98433.91;4926693;29;20047;-69
2021/07/27 14:00:39;;;;;;;8.20;4.13;;;;;;;27.70;41.64;98436.44;4925214;29;20079;-70
2021/07/27 14:03:04;;;;;;;5.38;3.50;;;;;;;27.50;42.86;98434.81;4926142;29;20031;-69
2021/07/27 14:05:29;;;;;;;4.57;3.25;;;;;;;28.14;41.98;98428.72;4926592;29;20461;-69
2021/07/27 14:07:55;;;;;;;5.07;3.65;;;;;;;28.20;40.74;98428.16;4919152;29;20023;-70
2021/07/27 14:10:21;;;;;;;7.20;3.72;;;;;;;28.51;41.56;98419.88;4916541;29;20146;-69
2021/07/27 14:12:46;;;;;;;4.22;3.60;;;;;;;27.40;42.43;98429.50;4917318;29;20042;-69
2021/07/27 14:15:12;;;;;;;5.00;4.10;;;;;;;27.25;42.79;98431.75;4917108;29;20393;-69
2021/07/27 14:17:37;;;;;;;4.53;3.83;;;;;;;27.81;41.86;98423.00;4917570;29;20023;-69
2021/07/27 14:20:04;;;;;;;4.55;3.85;;;;;;;27.41;43.45;98420.53;4916728;29;20114;-69
2021/07/27 14:22:29;;;;;;;6.28;3.67;;;;;;;28.41;41.31;98410.09;4916816;29;20185;-70
2021/07/27 14:24:55;;;;;;;4.18;3.28;;;;;;;28.39;41.53;98420.09;4917734;29;20030;-69
2021/07/27 14:27:20;;;;;;;4.07;3.65;;;;;;;28.61;41.81;98405.50;4916690;29;20119;-69
2021/07/27 14:29:45;;;;;;;5.55;3.50;;;;;;;27.99;42.33;98414.22;4917395;29;20292;-69
2021/07/27 14:32:11;;;;;;;7.05;3.80;;;;;;;27.70;43.62;98403.63;4909210;29;20058;-69
2021/07/27 14:34:38;;;;;;;5.50;4.18;;;;;;;27.47;43.16;98405.81;4910319;29;20049;-69
2021/07/27 14:37:05;;;;;;;5.03;3.50;;;;;;;27.63;44.31;98400.72;4914389;29;20031;-69
2021/07/27 14:39:31;;;;;;;4.10;3.70;;;;;;;27.56;43.60;98396.94;4916925;29;20098;-69
2021/07/27 14:41:56;;;;;;;4.10;3.67;;;;;;;27.93;43.04;98395.19;4917146;29;21105;-69
2021/07/27 14:44:21;;;;;;;4.88;3.75;;;;;;;27.47;42.95;98397.84;4916348;29;20030;-69
2021/07/27 14:46:47;;;;;;;9.18;4.22;;;;;;;27.73;43.36;98398.91;4917164;29;20482;-70
2021/07/27 14:49:12;;;;;;;6.07;3.72;;;;;;;27.53;43.05;98391.94;4915056;29;20587;-69
2021/07/27 14:51:37;;;;;;;4.03;3.72;;;;;;;27.77;42.56;98388.81;4916280;29;20763;-69
2021/07/27 14:54:03;;;;;;;4.50;4.07;;;;;;;27.56;43.35;98399.63;4916492;29;20028;-70
2021/07/27 14:56:28;;;;;;;4.75;3.78;;;;;;;27.83;43.32;98398.88;4900110;29;20374;-69
2021/07/27 14:58:53;;;;;;;9.98;4.28;;;;;;;27.23;44.10;98396.47;4917049;29;20039;-69
2021/07/27 15:01:19;;;;;;;5.25;3.83;;;;;;;27.29;43.96;98390.59;4922316;29;20098;-69
2021/07/27 15:03:44;;;;;;;4.35;3.25;;;;;;;27.58;44.92;98385.19;4925916;29;20486;-69
2021/07/27 15:06:10;;;;;;;5.82;3.78;;;;;;;27.97;44.40;98384.25;4925668;29;20023;-69
2021/07/27 15:08:35;;;;;;;7.78;3.55;;;;;;;28.24;42.66;98381.59;4925999;29;20540;-69
2021/07/27 15:11:01;;;;;;;3.80;3.50;;;;;;;28.29;43.97;98376.66;4919991;29;20034;-69
2021/07/27 15:13:26;;;;;;;6.97;4.05;;;;;;;28.61;43.00;98375.31;4919039;29;20027;-69
2021/07/27 15:15:52;;;;;;;6.35;4.18;;;;;;;28.26;42.58;98379.59;4918689;29;20120;-69
2021/07/27 15:18:17;;;;;;;7.70;4.00;;;;;;;28.86;42.33;98377.22;4919362;29;20028;-69
2021/07/27 15:20:43;;;;;;;5.40;3.90;;;;;;;27.91;42.60;98380.34;4920824;29;20568;-69
2021/07/27 15:23:08;;;;;;;5.18;4.30;;;;;;;28.84;41.28;98371.22;4922835;29;20091;-69
2021/07/27 15:25:37;;;;;;;4.55;3.72;;;;;;;27.90;43.08;98379.50;4922998;29;20027;-69
2021/07/27 15:28:02;;;;;;;;;;;;;;;27.91;43.51;98365.19;4902674;29;20650;-69
2021/07/27 15:30:28;;;;;;;4.20;3.75;;;;;;;27.28;46.00;98364.97;4920197;29;20624;-69
2021/07/27 15:32:53;;;;;;;6.15;4.05;;;;;;;26.71;46.84;98358.69;4920098;29;20438;-69
2021/07/27 15:35:19;;;;;;;6.55;4.00;;;;;;;27.04;46.16;98353.91;4920324;29;20473;-69
2021/07/27 15:37:44;;;;;;;5.65;3.90;;;;;;;27.12;46.35;98351.41;4920712;29;20035;-70
2021/07/27 15:40:10;;;;;;;4.63;3.85;;;;;;;27.15;45.20;98343.13;4924357;29;20071;-69
2021/07/27 15:42:35;;;;;;;4.97;4.13;;;;;;;27.51;45.55;98344.19;4928220;29;20062;-69